Time;durP1;ratioP1;P1;durP2;ratioP2;P2;SDS_P1;SDS_P2;PMS_P1;PMS_P2;Temp;Humidity;BMP_temperature;BMP_pressure;BME280_temperature;BME280_humidity;BME280_pressure;Samples;Min_cycle;Max_cycle;Signal;HPM_P1;HPM_P2
2022/05/30 00:02:20;;;;;;;1.60;1.27;;;;;;;11.37;57.43;96690.69;4881664;28;20199;-80
2022/05/30 00:04:47;;;;;;;1.95;1.45;;;;;;;11.32;57.88;96692.50;4887178;28;20704;-80
2022/05/30 00:07:12;;;;;;;1.60;1.40;;;;;;;11.25;57.86;96690.94;4862444;28;20274;-80
2022/05/30 00:09:38;;;;;;;1.23;1.10;;;;;;;11.23;58.16;96687.03;4878337;28;20283;-79
2022/05/30 00:12:04;;;;;;;2.40;1.70;;;;;;;11.14;58.12;96683.38;4878480;28;20168;-79
2022/05/30 00:14:29;;;;;;;2.00;1.30;;;;;;;11.15;58.51;96683.13;4894043;28;20241;-80
2022/05/30 00:16:56;;;;;;;2.22;1.30;;;;;;;11.00;58.82;96686.50;4893866;28;20273;-79
2022/05/30 00:19:21;;;;;;;1.92;1.45;;;;;;;10.95;58.97;96689.09;4877580;28;20205;-79
2022/05/30 00:21:49;;;;;;;1.67;1.30;;;;;;;10.77;59.22;96681.78;4907131;28;20168;-79
2022/05/30 00:24:14;;;;;;;1.90;1.58;;;;;;;10.79;59.46;96680.47;4878150;28;20319;-79
2022/05/30 00:26:40;;;;;;;1.35;1.20;;;;;;;10.79;59.05;96682.28;4877367;28;20436;-79
2022/05/30 00:29:06;;;;;;;2.25;1.80;;;;;;;10.72;59.52;96673.94;4893106;28;20294;-79
2022/05/30 00:31:32;;;;;;;2.08;1.50;;;;;;;10.72;59.28;96679.94;4877400;28;20271;-80
2022/05/30 00:33:57;;;;;;;2.10;1.45;;;;;;;10.68;59.48;96678.88;4893634;28;20194;-80
2022/05/30 00:36:23;;;;;;;1.83;1.50;;;;;;;10.67;59.46;96683.28;4893318;28;20551;-79
2022/05/30 00:38:48;;;;;;;2.03;1.83;;;;;;;10.70;59.42;96676.03;4877277;28;20644;-79
2022/05/30 00:41:17;;;;;;;1.50;1.27;;;;;;;10.66;59.42;96673.94;4892872;28;20137;-79
2022/05/30 00:43:46;;;;;;;1.92;1.60;;;;;;;10.68;59.07;96673.69;4881076;28;20185;-80
2022/05/30 00:46:15;;;;;;;2.60;1.70;;;;;;;10.70;58.90;96676.81;4896628;28;20296;-79
2022/05/30 00:48:57;;;;;;;1.88;1.50;;;;;;;10.57;58.78;96669.47;4929513;28;20270;-80
2022/05/30 00:51:31;;;;;;;1.73;1.58;;;;;;;10.61;59.07;96662.72;4930467;28;20204;-80
2022/05/30 00:53:57;;;;;;;1.80;1.35;;;;;;;10.68;58.23;96663.25;4912569;28;20163;-80
2022/05/30 00:56:25;;;;;;;1.70;1.30;;;;;;;10.58;58.63;96658.03;4896777;28;20187;-80
2022/05/30 00:58:51;;;;;;;1.73;1.42;;;;;;;10.49;59.01;96653.31;4896143;28;20628;-80
2022/05/30 01:01:18;;;;;;;1.70;1.58;;;;;;;10.47;58.54;96659.84;4927950;28;20115;-79
2022/05/30 01:06:35;;;;;;;3.05;1.63;;;;;;;10.46;58.56;96655.66;4875842;28;20291;-80
2022/05/30 01:09:28;;;;;;;3.17;1.83;;;;;;;10.21;59.12;96651.91;4857024;28;20187;-80
2022/05/30 01:12:05;;;;;;;2.42;1.42;;;;;;;10.25;59.09;96650.34;4871690;28;20260;-80
2022/05/30 01:14:35;;;;;;;3.55;1.60;;;;;;;10.33;59.50;96656.91;4873181;28;20204;-79
2022/05/30 01:17:02;;;;;;;1.95;1.45;;;;;;;10.38;59.11;96650.94;4874318;28;20642;-80
2022/05/30 01:20:08;;;;;;;2.30;1.40;;;;;;;10.22;59.30;96644.88;4873441;28;20192;-80
2022/05/30 01:22:45;;;;;;;2.45;1.52;;;;;;;10.17;59.34;96640.44;4874098;28;20204;-80
2022/05/30 01:25:14;;;;;;;2.58;1.67;;;;;;;10.23;59.17;96646.44;4890282;28;20208;-78
2022/05/30 01:28:05;;;;;;;1.80;1.40;;;;;;;10.06;59.55;96641.44;4873731;28;20199;-79
2022/05/30 01:30:32;;;;;;;1.60;1.48;;;;;;;10.11;59.25;96633.66;4891220;28;20275;-79
2022/05/30 01:32:58;;;;;;;1.80;1.60;;;;;;;10.10;59.56;96637.28;4873766;28;20271;-78
2022/05/30 01:35:25;;;;;;;3.03;1.80;;;;;;;10.00;59.76;96632.81;4858382;28;20323;-79
2022/05/30 01:37:50;;;;;;;1.85;1.40;;;;;;;10.01;59.84;96633.63;4857451;28;20615;-78
2022/05/30 01:40:16;;;;;;;2.50;1.77;;;;;;;10.01;59.85;96633.63;4881985;28;20175;-78
2022/05/30 01:42:41;;;;;;;1.40;1.30;;;;;;;10.00;59.69;96639.84;4875930;28;20296;-79
2022/05/30 01:45:07;;;;;;;2.75;1.50;;;;;;;10.02;59.70;96632.56;4876234;28;20111;-79
2022/05/30 01:47:33;;;;;;;2.80;1.80;;;;;;;9.94;59.90;96636.44;4907281;28;20198;-79
2022/05/30 01:49:59;;;;;;;1.88;1.63;;;;;;;9.94;59.71;96637.22;4892298;28;20633;-79
2022/05/30 01:52:24;;;;;;;2.15;1.85;;;;;;;9.87;59.60;96625.47;4892128;28;20304;-78
2022/05/30 01:54:50;;;;;;;1.50;1.40;;;;;;;9.75;59.19;96629.06;4892581;28;20237;-78
2022/05/30 01:57:15;;;;;;;2.33;1.75;;;;;;;9.72;59.37;96623.59;4892361;28;20299;-78
2022/05/30 01:59:40;;;;;;;1.80;1.42;;;;;;;9.77;59.40;96628.81;4891846;28;20724;-79
2022/05/30 02:02:08;;;;;;;1.40;1.30;;;;;;;9.71;59.71;96627.22;4892581;28;20198;-78
2022/05/30 02:04:34;;;;;;;2.25;1.95;;;;;;;9.70;60.28;96618.63;4891609;28;20211;-79
2022/05/30 02:06:59;;;;;;;2.25;1.77;;;;;;;9.66;59.85;96611.59;4904210;28;20691;-79
2022/05/30 02:09:24;;;;;;;3.25;1.92;;;;;;;9.68;59.91;96618.13;4892024;28;20145;-79
2022/05/30 02:11:50;;;;;;;2.30;1.60;;;;;;;9.61;59.89;96616.75;4910465;28;20275;-79
2022/05/30 02:14:15;;;;;;;2.40;1.50;;;;;;;9.57;60.61;96614.66;4909829;28;20435;-79
2022/05/30 02:19:42;;;;;;;2.85;1.90;;;;;;;9.45;60.40;96608.88;4923973;28;20294;-79
2022/05/30 02:22:10;;;;;;;1.83;1.40;;;;;;;9.45;60.32;96606.28;4891683;28;20709;-79
2022/05/30 02:24:36;;;;;;;2.85;1.70;;;;;;;9.43;60.44;96605.75;4891590;28;20207;-79
2022/05/30 02:27:02;;;;;;;2.15;1.52;;;;;;;9.45;60.22;96601.06;4928844;28;20116;-79
2022/05/30 02:29:27;;;;;;;1.67;1.58;;;;;;;9.40;60.10;96615.84;4917629;28;20183;-79
2022/05/30 02:31:53;;;;;;;2.70;1.85;;;;;;;9.36;60.57;96605.19;4927534;28;20223;-79
2022/05/30 02:37:03;;;;;;;2.30;1.83;;;;;;;9.17;60.68;96605.56;4923926;28;20257;-78
2022/05/30 02:39:29;;;;;;;2.20;1.80;;;;;;;9.07;60.56;96602.91;4903949;28;20673;-79
2022/05/30 02:41:55;;;;;;;2.60;1.95;;;;;;;9.18;60.46;96604.56;4872186;28;20665;-79
2022/05/30 02:44:22;;;;;;;1.95;1.75;;;;;;;9.21;60.88;96602.47;4889370;28;20129;-79
2022/05/30 02:46:49;;;;;;;1.67;1.45;;;;;;;9.28;60.44;96605.66;4890758;28;20105;-79
2022/05/30 02:49:15;;;;;;;2.35;1.75;;;;;;;9.27;60.38;96610.06;4927307;28;20203;-79
2022/05/30 02:51:41;;;;;;;2.20;1.75;;;;;;;9.21;60.76;96598.06;4915309;28;20222;-79
2022/05/30 02:54:07;;;;;;;2.85;1.70;;;;;;;9.19;60.56;96597.53;4911817;28;20121;-78
2022/05/30 02:56:33;;;;;;;3.40;1.75;;;;;;;9.15;60.40;96599.84;4925664;28;20697;-79
2022/05/30 02:58:59;;;;;;;3.63;2.28;;;;;;;9.13;60.70;96614.09;4890591;28;20306;-79
2022/05/30 03:01:25;;;;;;;2.10;1.50;;;;;;;9.03;60.84;96603.63;4874766;28;20382;-78
2022/05/30 03:03:50;;;;;;;2.22;2.03;;;;;;;8.99;60.34;96609.31;4890780;28;20428;-78
2022/05/30 03:06:16;;;;;;;3.38;1.70;;;;;;;8.99;60.69;96613.72;4883805;28;20287;-79
2022/05/30 03:08:41;;;;;;;2.47;1.98;;;;;;;8.92;60.71;96606.16;4927471;28;20207;-78
2022/05/30 03:11:07;;;;;;;3.40;2.10;;;;;;;8.92;61.18;96613.16;4931038;28;20158;-78
2022/05/30 03:13:33;;;;;;;2.53;2.10;;;;;;;8.86;61.12;96609.75;4911980;28;20548;-79
2022/05/30 03:15:59;;;;;;;2.47;1.70;;;;;;;8.78;60.79;96613.56;4923438;28;20037;-79
2022/05/30 03:18:25;;;;;;;1.90;1.60;;;;;;;8.75;60.14;96619.25;4890483;28;20273;-79
2022/05/30 03:20:50;;;;;;;2.33;1.90;;;;;;;8.71;60.53;96628.56;4890980;28;20218;-79
2022/05/30 03:23:16;;;;;;;2.65;1.63;;;;;;;8.63;60.00;96634.97;4874585;28;20617;-79
2022/05/30 03:25:41;;;;;;;2.05;1.73;;;;;;;8.60;60.50;96632.06;4890309;28;20190;-79
2022/05/30 03:28:07;;;;;;;2.00;1.67;;;;;;;8.66;60.64;96638.88;4874674;28;20693;-79
2022/05/30 03:30:36;;;;;;;2.00;1.80;;;;;;;8.67;60.20;96643.06;4890094;28;20207;-79
2022/05/30 03:33:04;;;;;;;2.55;2.00;;;;;;;8.65;60.55;96647.69;4893227;28;20311;-79
2022/05/30 03:35:30;;;;;;;2.95;2.20;;;;;;;8.65;61.00;96650.28;4878268;28;20444;-79
2022/05/30 03:37:56;;;;;;;3.00;1.73;;;;;;;8.68;60.88;96649.81;4911551;28;20247;-79
2022/05/30 03:40:21;;;;;;;3.75;2.08;;;;;;;8.67;61.41;96648.25;4870919;28;20378;-79
2022/05/30 03:42:47;;;;;;;3.83;2.65;;;;;;;8.70;62.15;96645.16;4859375;28;20295;-79
2022/05/30 03:45:13;;;;;;;3.92;2.30;;;;;;;8.73;62.02;96654.28;4875279;28;20207;-79
2022/05/30 03:47:44;;;;;;;3.00;2.17;;;;;;;8.72;61.51;96660.47;4858604;28;20207;-79
2022/05/30 03:50:13;;;;;;;3.90;2.55;;;;;;;8.78;61.74;96662.09;4890801;28;20177;-79
2022/05/30 03:52:39;;;;;;;4.80;2.50;;;;;;;8.81;61.65;96665.00;4859752;28;20211;-79
2022/05/30 03:55:06;;;;;;;2.38;2.00;;;;;;;8.82;61.37;96665.78;4875016;28;20192;-79
2022/05/30 03:57:32;;;;;;;2.95;2.25;;;;;;;8.80;61.87;96657.44;4874278;28;20366;-79
2022/05/30 03:59:57;;;;;;;2.78;2.00;;;;;;;8.81;61.64;96665.00;4891036;28;20349;-79
2022/05/30 04:02:23;;;;;;;3.80;2.47;;;;;;;8.77;61.70;96660.53;4858888;28;20219;-79
2022/05/30 04:04:48;;;;;;;3.85;2.60;;;;;;;8.81;61.69;96664.22;4858993;28;20196;-79
2022/05/30 04:07:13;;;;;;;2.85;2.10;;;;;;;8.87;61.89;96667.63;4874834;28;20191;-79
2022/05/30 04:09:39;;;;;;;2.80;1.98;;;;;;;8.79;61.29;96661.06;4874329;28;20323;-79
2022/05/30 04:12:05;;;;;;;2.80;1.90;;;;;;;8.77;60.56;96666.53;4884412;28;20218;-79
2022/05/30 04:14:31;;;;;;;3.40;2.05;;;;;;;8.70;60.76;96660.72;4909647;28;20287;-79
2022/05/30 04:16:57;;;;;;;1.90;1.70;;;;;;;8.74;60.91;96661.00;4893469;28;20548;-79
2022/05/30 04:19:22;;;;;;;2.17;1.83;;;;;;;8.74;60.83;96663.59;4893744;28;20724;-79
2022/05/30 04:21:47;;;;;;;2.33;1.83;;;;;;;8.81;60.81;96666.81;4893755;28;20284;-79
2022/05/30 04:24:13;;;;;;;3.03;2.22;;;;;;;8.84;60.74;96670.72;4877775;28;20294;-79
2022/05/30 04:26:39;;;;;;;3.45;2.30;;;;;;;8.90;61.57;96667.16;4877689;28;20258;-79
2022/05/30 04:29:05;;;;;;;4.95;3.00;;;;;;;9.05;61.94;96669.88;4877094;28;20717;-78
2022/05/30 04:31:30;;;;;;;3.05;2.50;;;;;;;9.13;61.92;96666.84;4893871;28;20300;-78
2022/05/30 04:33:56;;;;;;;3.83;2.97;;;;;;;9.25;62.17;96677.03;4877118;28;20283;-79
2022/05/30 04:36:21;;;;;;;5.10;3.25;;;;;;;9.33;62.41;96670.63;4909176;28;20165;-79
2022/05/30 04:38:47;;;;;;;4.28;3.45;;;;;;;9.43;62.26;96675.91;4892928;28;20215;-79
2022/05/30 04:41:12;;;;;;;4.97;3.45;;;;;;;9.45;62.26;96680.84;4845040;28;20349;-79
2022/05/30 04:43:37;;;;;;;5.25;3.35;;;;;;;9.47;63.00;96682.16;4884947;28;20256;-78
2022/05/30 04:46:21;;;;;;;5.20;3.60;;;;;;;9.26;63.49;96683.03;4908111;28;20160;-78
2022/05/30 04:48:46;;;;;;;6.35;3.63;;;;;;;9.58;62.43;96675.22;4876600;28;20630;-78
2022/05/30 04:51:12;;;;;;;6.65;3.67;;;;;;;9.70;62.72;96685.44;4892941;28;20168;-78
2022/05/30 04:53:38;;;;;;;5.20;3.50;;;;;;;9.83;62.25;96686.81;4877370;28;20638;-78
2022/05/30 04:56:04;;;;;;;5.97;4.20;;;;;;;9.92;62.57;96687.91;4910945;28;20182;-79
2022/05/30 04:58:32;;;;;;;7.93;3.92;;;;;;;10.02;62.83;96680.16;4892717;28;20207;-79
2022/05/30 05:01:04;;;;;;;7.22;4.10;;;;;;;9.99;62.22;96685.06;4891966;28;20278;-78
2022/05/30 05:03:31;;;;;;;5.85;4.20;;;;;;;10.09;62.62;96687.72;4861147;28;20206;-78
2022/05/30 05:06:05;;;;;;;5.00;3.95;;;;;;;10.13;62.73;96681.00;4891767;28;20661;-78
2022/05/30 05:08:47;;;;;;;6.67;4.87;;;;;;;10.21;62.96;96688.34;4875944;28;20266;-78
2022/05/30 05:11:12;;;;;;;10.20;4.78;;;;;;;10.50;62.41;96687.94;4910500;28;20194;-78
2022/05/30 05:13:39;;;;;;;6.93;4.55;;;;;;;10.60;62.58;96681.97;4876414;28;20168;-78
2022/05/30 05:16:05;;;;;;;8.32;5.30;;;;;;;10.72;62.73;96681.75;4875929;28;20242;-79
2022/05/30 05:18:30;;;;;;;6.45;4.40;;;;;;;10.85;62.42;96689.84;4891733;28;20222;-78
2022/05/30 05:20:56;;;;;;;7.55;4.63;;;;;;;10.84;62.38;96687.50;4892817;28;20290;-77
2022/05/30 05:23:21;;;;;;;7.13;4.82;;;;;;;10.97;62.42;96687.00;4877023;28;20701;-78
2022/05/30 05:25:46;;;;;;;6.13;4.22;;;;;;;11.14;61.62;96691.19;4875611;28;20216;-78
2022/05/30 05:28:12;;;;;;;7.45;4.30;;;;;;;11.06;62.21;96693.28;4892173;28;20273;-77
2022/05/30 05:30:39;;;;;;;6.45;4.10;;;;;;;10.95;61.92;96694.31;4910185;28;20278;-78
2022/05/30 05:33:05;;;;;;;6.25;4.38;;;;;;;11.13;62.13;96702.66;4860717;28;20303;-77
2022/05/30 05:35:30;;;;;;;7.63;4.32;;;;;;;11.13;62.03;96695.63;4892696;28;20243;-77
2022/05/30 05:37:56;;;;;;;6.68;4.38;;;;;;;11.25;61.96;96695.38;4907717;28;20246;-77
2022/05/30 05:40:21;;;;;;;5.60;4.53;;;;;;;11.42;61.23;96695.91;4847902;28;20204;-76
2022/05/30 05:42:47;;;;;;;4.60;3.42;;;;;;;11.46;61.08;96695.38;4882602;28;20661;-78
2022/05/30 05:45:12;;;;;;;5.35;4.10;;;;;;;11.69;61.17;96697.44;4929351;28;20210;-77
2022/05/30 05:47:38;;;;;;;6.15;4.30;;;;;;;11.76;60.93;96697.97;4928987;28;20205;-78
2022/05/30 05:50:04;;;;;;;6.20;4.03;;;;;;;11.78;60.60;96697.69;4897105;28;20276;-77
2022/05/30 05:52:30;;;;;;;6.50;4.22;;;;;;;11.70;60.93;96691.19;4895654;28;20369;-77
2022/05/30 05:54:55;;;;;;;5.93;4.57;;;;;;;11.94;60.42;96703.69;4911948;28;20637;-78
2022/05/30 05:57:22;;;;;;;5.72;3.95;;;;;;;12.07;60.12;96705.75;4911886;28;20160;-77
2022/05/30 05:59:47;;;;;;;6.13;3.55;;;;;;;12.12;59.93;96699.75;4896130;28;20297;-79
2022/05/30 06:02:13;;;;;;;5.55;3.58;;;;;;;12.15;59.71;96700.00;4911813;28;20543;-78
2022/05/30 06:04:39;;;;;;;5.15;3.80;;;;;;;12.24;59.43;96702.06;4911385;28;20250;-78
2022/05/30 06:07:04;;;;;;;5.65;3.50;;;;;;;12.29;59.42;96697.59;4876917;28;20675;-78
2022/05/30 06:09:30;;;;;;;5.38;3.30;;;;;;;12.35;59.46;96709.59;4895791;28;20175;-78
2022/05/30 06:11:59;;;;;;;5.32;3.55;;;;;;;12.58;58.92;96717.06;4896114;28;20651;-78
2022/05/30 06:14:24;;;;;;;5.18;3.15;;;;;;;12.84;58.22;96715.91;4911203;28;20625;-77
2022/05/30 06:16:50;;;;;;;4.95;2.75;;;;;;;12.95;57.96;96715.84;4912426;28;20139;-78
2022/05/30 06:19:15;;;;;;;6.03;2.90;;;;;;;13.06;57.42;96712.13;4895089;28;20194;-77
2022/05/30 06:21:41;;;;;;;4.10;2.70;;;;;;;13.01;56.99;96725.22;4908304;28;20661;-78
2022/05/30 06:24:08;;;;;;;3.03;2.50;;;;;;;13.16;56.95;96717.28;4926580;28;20260;-76
2022/05/30 06:26:34;;;;;;;3.22;2.40;;;;;;;13.30;56.27;96723.44;4892950;28;20729;-77
2022/05/30 06:28:59;;;;;;;4.28;2.65;;;;;;;13.58;55.78;96720.41;4907978;28;20226;-78
2022/05/30 06:31:28;;;;;;;4.15;2.00;;;;;;;13.79;55.02;96718.38;4927411;28;20357;-77
2022/05/30 06:33:53;;;;;;;2.53;2.05;;;;;;;14.03;54.42;96718.41;4892684;28;20218;-77
2022/05/30 06:36:20;;;;;;;2.05;1.83;;;;;;;14.22;54.30;96721.09;4909815;28;20172;-77
2022/05/30 06:38:47;;;;;;;3.25;1.88;;;;;;;14.34;52.99;96721.50;4892360;28;20190;-77
2022/05/30 06:41:27;;;;;;;2.20;1.80;;;;;;;14.49;52.68;96724.97;4873667;28;20220;-78
2022/05/30 06:43:54;;;;;;;2.63;1.60;;;;;;;14.82;52.27;96720.66;4886972;28;20686;-77
2022/05/30 06:46:19;;;;;;;2.15;1.35;;;;;;;15.09;50.93;96727.88;4891481;28;20326;-78
2022/05/30 06:48:46;;;;;;;3.85;1.88;;;;;;;15.08;51.02;96712.44;4909860;28;20378;-77
2022/05/30 06:51:14;;;;;;;3.90;1.33;;;;;;;15.48;50.76;96726.78;4892004;28;20246;-77
2022/05/30 06:53:45;;;;;;;2.47;1.27;;;;;;;15.54;49.99;96715.16;4892387;28;20199;-76
2022/05/30 06:56:31;;;;;;;2.60;1.23;;;;;;;15.91;49.75;96726.63;4876786;28;20261;-77
2022/05/30 06:58:56;;;;;;;;;;;;;;;15.28;49.94;96721.84;4892110;28;20728;-77
2022/05/30 07:01:28;;;;;;;1.75;1.02;;;;;;;15.95;48.83;96716.31;4908567;28;20149;-76
2022/05/30 07:03:54;;;;;;;1.40;0.80;;;;;;;15.82;49.20;96717.09;4861006;28;20637;-77
2022/05/30 07:06:23;;;;;;;2.53;1.20;;;;;;;16.21;47.72;96729.78;4876713;28;20203;-77
2022/05/30 07:08:48;;;;;;;1.67;0.80;;;;;;;16.40;47.31;96726.25;4875515;28;20218;-77
2022/05/30 07:11:15;;;;;;;2.08;0.90;;;;;;;16.80;47.22;96729.16;4891817;28;20191;-77
2022/05/30 07:13:41;;;;;;;1.13;0.90;;;;;;;16.99;46.08;96735.06;4860728;28;20570;-77
2022/05/30 07:16:06;;;;;;;1.90;0.93;;;;;;;17.31;45.62;96735.19;4891385;28;20194;-78
2022/05/30 07:18:31;;;;;;;1.60;0.70;;;;;;;17.34;45.29;96732.75;4891540;28;20713;-77
2022/05/30 07:20:59;;;;;;;2.53;0.75;;;;;;;17.70;44.99;96728.47;4876103;28;20358;-77
2022/05/30 07:23:24;;;;;;;2.03;0.68;;;;;;;17.56;44.44;96741.69;4891485;28;20267;-77
2022/05/30 07:25:50;;;;;;;0.70;0.70;;;;;;;17.65;43.91;96732.00;4891515;28;20302;-78
2022/05/30 07:28:16;;;;;;;1.60;0.75;;;;;;;17.74;44.47;96739.97;4891039;28;20209;-77
2022/05/30 07:30:42;;;;;;;0.85;0.40;;;;;;;18.23;43.65;96734.78;4890512;28;20259;-78
2022/05/30 07:33:08;;;;;;;1.52;0.88;;;;;;;18.44;42.66;96733.16;4891307;28;20184;-77
2022/05/30 07:35:33;;;;;;;2.20;0.68;;;;;;;18.62;41.57;96730.56;4890915;28;20703;-77
2022/05/30 07:37:58;;;;;;;0.95;0.47;;;;;;;18.64;42.61;96728.41;4906183;28;20727;-77
2022/05/30 07:40:24;;;;;;;0.95;0.60;;;;;;;18.81;41.42;96735.56;4882999;28;20160;-77
2022/05/30 07:42:49;;;;;;;2.20;0.88;;;;;;;19.01;42.20;96736.88;4890808;28;20194;-79
2022/05/30 07:45:14;;;;;;;1.13;0.60;;;;;;;18.56;42.40;96734.41;4901818;28;20631;-77
2022/05/30 07:47:40;;;;;;;0.70;0.57;;;;;;;18.28;41.92;96737.28;4889868;28;20302;-78
2022/05/30 07:50:08;;;;;;;2.13;1.00;;;;;;;18.38;41.26;96734.38;4893684;28;20219;-76
2022/05/30 07:52:34;;;;;;;0.70;0.60;;;;;;;18.47;41.78;96731.75;4866356;28;20941;-77
2022/05/30 07:55:02;;;;;;;1.70;0.60;;;;;;;18.40;42.77;96734.84;4875727;28;20270;-76
2022/05/30 08:00:12;;;;;;;1.23;0.65;;;;;;;18.61;41.28;96727.16;4905059;28;20290;-77
2022/05/30 08:02:39;;;;;;;2.00;0.65;;;;;;;19.07;41.35;96740.88;4905706;28;20267;-76
2022/05/30 08:05:06;;;;;;;1.75;0.50;;;;;;;19.25;41.15;96731.88;4922426;28;20676;-77
2022/05/30 08:07:31;;;;;;;1.48;0.55;;;;;;;19.74;39.61;96733.53;4885605;28;20279;-76
2022/05/30 08:09:57;;;;;;;0.50;0.50;;;;;;;20.30;39.30;96731.66;4893787;28;20632;-76
2022/05/30 08:12:22;;;;;;;1.35;0.70;;;;;;;20.69;37.35;96739.59;4909516;28;20244;-76
2022/05/30 08:14:47;;;;;;;1.00;0.52;;;;;;;20.54;36.61;96739.00;4925737;28;20193;-77
2022/05/30 08:17:13;;;;;;;0.70;0.60;;;;;;;20.71;37.08;96734.75;4893033;28;20206;-77
2022/05/30 08:19:40;;;;;;;1.02;0.75;;;;;;;20.36;37.04;96745.50;4912495;28;20245;-77
2022/05/30 08:22:09;;;;;;;0.80;0.60;;;;;;;20.00;36.96;96739.56;4929294;28;20634;-77
2022/05/30 08:24:42;;;;;;;1.33;0.60;;;;;;;19.55;38.25;96734.69;4896965;28;20254;-76
2022/05/30 08:27:07;;;;;;;1.95;0.70;;;;;;;19.31;38.83;96739.66;4912827;28;20707;-76
2022/05/30 08:29:33;;;;;;;1.30;0.60;;;;;;;19.85;39.21;96737.44;4918542;28;20282;-76
2022/05/30 08:31:58;;;;;;;1.25;0.50;;;;;;;20.00;38.32;96739.56;4860765;28;20274;-76
2022/05/30 08:34:25;;;;;;;1.55;0.73;;;;;;;20.26;37.74;96741.34;4892261;28;20258;-76
2022/05/30 08:36:50;;;;;;;1.40;0.65;;;;;;;19.92;37.46;96745.63;4891809;28;20598;-76
2022/05/30 08:42:00;;;;;;;2.35;0.75;;;;;;;20.40;36.55;96743.75;4858913;28;20766;-76
2022/05/30 08:44:29;;;;;;;1.73;0.60;;;;;;;20.29;36.56;96743.34;4892428;28;20746;-76
2022/05/30 08:47:06;;;;;;;0.93;0.65;;;;;;;19.97;37.15;96742.81;4927095;28;20293;-76
2022/05/30 08:49:49;;;;;;;0.70;0.60;;;;;;;19.65;37.15;96747.56;4914960;28;20339;-76
2022/05/30 08:52:18;;;;;;;1.27;0.60;;;;;;;19.51;37.92;96752.22;4887563;28;20210;-77
2022/05/30 08:54:52;;;;;;;1.42;0.63;;;;;;;18.79;38.40;96748.28;4914490;28;20180;-77
2022/05/30 08:57:51;;;;;;;1.40;0.70;;;;;;;18.86;39.50;96757.31;4912804;28;20184;-77
2022/05/30 09:00:25;;;;;;;1.45;0.57;;;;;;;19.04;37.29;96754.72;4895780;28;20207;-76
2022/05/30 09:03:21;;;;;;;1.30;0.70;;;;;;;18.78;38.82;96744.09;4883501;28;20577;-77
2022/05/30 09:05:50;;;;;;;1.02;0.57;;;;;;;18.61;39.15;96745.63;4900798;28;20228;-77
2022/05/30 09:08:23;;;;;;;0.65;0.40;;;;;;;18.50;40.02;96754.88;4888269;28;20581;-76
2022/05/30 09:11:01;;;;;;;0.95;0.55;;;;;;;18.39;39.56;96746.47;4875299;28;20129;-76
2022/05/30 09:13:44;;;;;;;1.75;0.60;;;;;;;18.51;38.56;96754.59;4874947;28;20251;-77
2022/05/30 09:16:30;;;;;;;0.90;0.60;;;;;;;18.74;39.58;96751.84;4891626;28;20657;-76
2022/05/30 09:18:57;;;;;;;1.35;0.70;;;;;;;19.05;39.84;96758.91;4909523;28;20214;-77
2022/05/30 09:21:26;;;;;;;1.42;0.60;;;;;;;19.46;39.07;96755.00;4911598;28;20301;-77
2022/05/30 09:23:52;;;;;;;2.70;0.70;;;;;;;19.85;36.99;96755.94;4910970;28;20288;-77
2022/05/30 09:26:25;;;;;;;1.10;0.68;;;;;;;20.27;37.41;96757.97;4880855;28;20302;-77
2022/05/30 09:28:52;;;;;;;1.05;0.90;;;;;;;20.61;36.05;96758.91;4881794;28;20168;-76
2022/05/30 09:31:21;;;;;;;1.20;0.60;;;;;;;20.95;33.92;96755.28;4912143;28;20190;-76
2022/05/30 09:33:58;;;;;;;0.63;0.57;;;;;;;21.08;34.78;96748.97;4894619;28;20369;-77
2022/05/30 09:36:29;;;;;;;3.92;0.77;;;;;;;21.40;35.32;96759.91;4897537;28;20160;-77
2022/05/30 09:39:16;;;;;;;0.90;0.80;;;;;;;21.20;35.06;96750.13;4912940;28;20287;-76
2022/05/30 09:41:41;;;;;;;1.38;0.80;;;;;;;21.27;34.25;96751.16;4855429;28;20718;-76
2022/05/30 09:44:12;;;;;;;1.35;0.73;;;;;;;19.88;35.07;96752.66;4887296;28;20275;-77
2022/05/30 09:46:43;;;;;;;1.10;0.80;;;;;;;19.90;35.22;96745.19;4875378;28;20196;-76
2022/05/30 09:49:26;;;;;;;1.25;0.85;;;;;;;19.82;35.81;96749.38;4871295;28;20696;-76
2022/05/30 09:51:54;;;;;;;1.60;0.82;;;;;;;19.82;37.00;96752.03;4869909;28;20275;-76
2022/05/30 09:54:22;;;;;;;1.88;0.88;;;;;;;19.65;36.81;96750.19;4890145;28;20293;-76
2022/05/30 09:56:48;;;;;;;1.02;0.60;;;;;;;19.63;37.19;96746.31;4916631;28;20320;-76
2022/05/30 09:59:35;;;;;;;1.33;0.70;;;;;;;19.53;35.89;96747.41;4876546;28;20301;-76
2022/05/30 10:02:01;;;;;;;1.65;0.77;;;;;;;19.47;36.66;96748.66;4876655;28;20286;-76
2022/05/30 10:04:41;;;;;;;1.63;0.73;;;;;;;19.08;37.58;96758.28;4900801;28;20269;-77
2022/05/30 10:07:16;;;;;;;1.83;0.77;;;;;;;18.48;37.46;96747.28;4887371;28;20190;-77
2022/05/30 10:09:58;;;;;;;0.80;0.80;;;;;;;18.61;38.40;96747.47;4883064;28;20634;-77
2022/05/30 10:12:42;;;;;;;3.05;0.73;;;;;;;18.56;39.53;96750.25;4894310;28;20201;-76
2022/05/30 10:15:28;;;;;;;1.90;0.90;;;;;;;18.56;39.47;96755.50;4901771;28;20715;-76
2022/05/30 10:17:56;;;;;;;0.80;0.70;;;;;;;18.90;38.12;96752.19;4887747;28;20384;-77
2022/05/30 10:20:39;;;;;;;0.70;0.63;;;;;;;18.96;38.40;96761.53;4893994;28;20269;-77
2022/05/30 10:29:46;;;;;;;1.67;0.70;;;;;;;18.70;38.19;96766.72;4906774;28;20210;-77
2022/05/30 10:32:17;;;;;;;1.20;0.68;;;;;;;18.99;37.54;96760.16;4878532;28;20222;-77
2022/05/30 10:34:43;;;;;;;3.22;0.70;;;;;;;19.07;37.95;96759.34;4879726;28;20346;-77
2022/05/30 10:37:24;;;;;;;0.80;0.77;;;;;;;18.91;37.44;96761.69;4895135;28;20290;-77
2022/05/30 10:39:59;;;;;;;2.22;0.90;;;;;;;19.05;37.76;96766.81;4896094;28;20643;-77
2022/05/30 10:42:48;;;;;;;2.35;0.80;;;;;;;18.94;38.95;96770.84;4880037;28;20195;-77
2022/05/30 10:45:24;;;;;;;1.60;0.70;;;;;;;19.02;39.19;96767.41;4911449;28;20191;-77
2022/05/30 10:47:52;;;;;;;2.67;0.70;;;;;;;19.19;39.09;96775.38;4895267;28;20716;-76
2022/05/30 10:50:42;;;;;;;1.10;0.70;;;;;;;19.73;39.17;96767.09;4911282;28;20124;-77
2022/05/30 10:53:17;;;;;;;2.35;0.98;;;;;;;20.40;38.36;96768.31;4902476;28;20191;-77
2022/05/30 10:55:46;;;;;;;1.48;0.80;;;;;;;21.01;37.91;96779.69;4893384;28;20363;-77
2022/05/30 10:58:32;;;;;;;1.85;1.23;;;;;;;20.98;34.94;96781.13;4860237;28;20283;-77
2022/05/30 11:01:03;;;;;;;1.77;0.93;;;;;;;20.86;35.21;96779.16;4905432;28;20268;-77
2022/05/30 11:03:34;;;;;;;2.88;1.65;;;;;;;21.14;36.79;96782.09;4857172;28;20252;-77
2022/05/30 11:06:06;;;;;;;2.13;0.90;;;;;;;21.93;34.35;96778.03;4875183;28;20200;-77
2022/05/30 11:08:50;;;;;;;0.75;0.55;;;;;;;22.01;34.08;96782.47;4910619;28;20166;-77
2022/05/30 11:11:37;;;;;;;1.03;0.73;;;;;;;21.78;33.36;96782.06;4911186;28;20242;-77
2022/05/30 11:14:35;;;;;;;1.00;0.80;;;;;;;21.86;33.79;96781.22;4909339;28;20276;-76
2022/05/30 11:17:12;;;;;;;1.65;1.00;;;;;;;21.92;33.82;96774.59;4841594;28;20661;-77
2022/05/30 11:20:15;;;;;;;1.35;1.02;;;;;;;21.58;34.06;96781.78;4889133;28;20337;-76
2022/05/30 11:22:41;;;;;;;1.60;0.88;;;;;;;21.24;32.57;96770.34;4887772;28;20178;-76
2022/05/30 11:25:10;;;;;;;2.08;0.65;;;;;;;21.05;34.18;96773.44;4900602;28;20152;-77
2022/05/30 11:27:39;;;;;;;1.95;0.70;;;;;;;20.91;35.21;96775.56;4901583;28;20599;-78
2022/05/30 11:30:21;;;;;;;2.35;0.80;;;;;;;21.04;37.16;96777.19;4890574;28;20107;-78
2022/05/30 11:32:57;;;;;;;0.93;0.80;;;;;;;21.16;36.29;96771.19;4875247;28;20566;-77
2022/05/30 11:35:37;;;;;;;1.95;0.70;;;;;;;20.88;35.25;96770.91;4881210;28;20529;-78
2022/05/30 11:38:11;;;;;;;1.48;0.60;;;;;;;21.07;34.61;96781.06;4905120;28;20652;-77
2022/05/30 11:40:57;;;;;;;1.58;0.60;;;;;;;20.88;34.88;96778.84;4888365;28;20275;-77
2022/05/30 11:43:31;;;;;;;;;;;;;;;20.57;35.66;96778.03;4884405;28;20271;-77
2022/05/30 11:46:48;;;;;;;1.00;0.63;;;;;;;20.32;34.96;96778.94;4913035;28;20730;-77
2022/05/30 11:49:36;;;;;;;1.10;0.88;;;;;;;20.32;35.38;96779.72;4869730;28;20462;-77
2022/05/30 11:52:34;;;;;;;1.17;0.60;;;;;;;19.99;36.91;96782.16;4878183;28;20288;-77
2022/05/30 11:55:10;;;;;;;1.58;0.70;;;;;;;20.17;35.32;96780.25;4911021;28;20354;-77
2022/05/30 11:57:38;;;;;;;0.80;0.50;;;;;;;20.21;35.78;96786.44;4895267;28;20363;-76
2022/05/30 12:00:21;;;;;;;2.38;1.05;;;;;;;20.26;36.71;96782.88;4909524;28;20179;-77
2022/05/30 12:03:22;;;;;;;2.03;0.80;;;;;;;20.60;36.28;96781.94;4876370;28;20196;-77
2022/05/30 12:06:21;;;;;;;1.15;0.90;;;;;;;20.87;36.45;96788.66;4893778;28;20342;-76
2022/05/30 12:08:55;;;;;;;1.42;0.63;;;;;;;20.72;34.81;96790.00;4891824;28;20264;-77
2022/05/30 12:11:40;;;;;;;3.38;0.88;;;;;;;20.66;34.90;96782.56;4876934;28;20316;-77